sensor_id;sensor_type;location;lat;lon;timestamp;temperature;humidity
5364;DHT22;2705;41.410;2.160;2022-09-27T00:01:24;20.20;96.90
5364;DHT22;2705;41.410;2.160;2022-09-27T00:03:53;20.20;97.20
5364;DHT22;2705;41.410;2.160;2022-09-27T00:06:26;20.20;97.40
5364;DHT22;2705;41.410;2.160;2022-09-27T00:08:55;20.10;97.30
5364;DHT22;2705;41.410;2.160;2022-09-27T00:11:27;20.10;97.40
5364;DHT22;2705;41.410;2.160;2022-09-27T00:13:57;20.00;97.60
5364;DHT22;2705;41.410;2.160;2022-09-27T00:16:28;20.00;97.80
5364;DHT22;2705;41.410;2.160;2022-09-27T00:18:58;20.00;97.70
5364;DHT22;2705;41.410;2.160;2022-09-27T00:21:29;19.90;97.60
5364;DHT22;2705;41.410;2.160;2022-09-27T00:23:59;19.50;98.00
5364;DHT22;2705;41.410;2.160;2022-09-27T00:26:28;19.60;98.30
5364;DHT22;2705;41.410;2.160;2022-09-27T00:28:57;19.70;98.10
5364;DHT22;2705;41.410;2.160;2022-09-27T00:31:28;19.80;98.20
5364;DHT22;2705;41.410;2.160;2022-09-27T00:33:59;19.80;98.20
5364;DHT22;2705;41.410;2.160;2022-09-27T00:36:31;19.80;98.20
5364;DHT22;2705;41.410;2.160;2022-09-27T00:39:00;19.50;98.50
5364;DHT22;2705;41.410;2.160;2022-09-27T00:41:32;19.60;98.50
5364;DHT22;2705;41.410;2.160;2022-09-27T00:44:03;19.70;98.60
5364;DHT22;2705;41.410;2.160;2022-09-27T00:46:35;19.70;98.60
5364;DHT22;2705;41.410;2.160;2022-09-27T00:49:14;19.70;98.60
5364;DHT22;2705;41.410;2.160;2022-09-27T00:51:50;19.70;98.70
5364;DHT22;2705;41.410;2.160;2022-09-27T00:54:21;19.70;98.80
5364;DHT22;2705;41.410;2.160;2022-09-27T00:56:53;19.70;98.80
5364;DHT22;2705;41.410;2.160;2022-09-27T00:59:25;19.60;98.80
5364;DHT22;2705;41.410;2.160;2022-09-27T01:01:55;19.60;98.90
5364;DHT22;2705;41.410;2.160;2022-09-27T01:04:27;19.60;99.10
5364;DHT22;2705;41.410;2.160;2022-09-27T01:07:00;19.60;99.20
5364;DHT22;2705;41.410;2.160;2022-09-27T01:09:29;19.60;99.20
5364;DHT22;2705;41.410;2.160;2022-09-27T01:12:07;19.50;99.40
5364;DHT22;2705;41.410;2.160;2022-09-27T01:14:47;19.40;99.60
5364;DHT22;2705;41.410;2.160;2022-09-27T01:17:32;19.40;99.50
5364;DHT22;2705;41.410;2.160;2022-09-27T01:23:30;19.40;99.90
5364;DHT22;2705;41.410;2.160;2022-09-27T01:26:11;19.40;99.90
5364;DHT22;2705;41.410;2.160;2022-09-27T01:28:50;19.40;99.90
5364;DHT22;2705;41.410;2.160;2022-09-27T01:31:27;19.30;99.90
5364;DHT22;2705;41.410;2.160;2022-09-27T01:34:02;19.30;99.90
5364;DHT22;2705;41.410;2.160;2022-09-27T01:36:41;19.30;99.90
5364;DHT22;2705;41.410;2.160;2022-09-27T01:39:20;19.30;99.90
5364;DHT22;2705;41.410;2.160;2022-09-27T01:42:15;19.30;99.90
5364;DHT22;2705;41.410;2.160;2022-09-27T01:44:57;19.10;99.90
5364;DHT22;2705;41.410;2.160;2022-09-27T01:47:41;18.90;99.90
5364;DHT22;2705;41.410;2.160;2022-09-27T01:50:36;18.70;99.90
5364;DHT22;2705;41.410;2.160;2022-09-27T01:53:09;18.80;99.90
5364;DHT22;2705;41.410;2.160;2022-09-27T01:56:03;18.70;99.90
5364;DHT22;2705;41.410;2.160;2022-09-27T01:58:51;18.70;99.90
5364;DHT22;2705;41.410;2.160;2022-09-27T02:01:24;18.60;99.90
5364;DHT22;2705;41.410;2.160;2022-09-27T02:03:57;18.70;99.90
5364;DHT22;2705;41.410;2.160;2022-09-27T02:07:09;18.60;99.90
5364;DHT22;2705;41.410;2.160;2022-09-27T02:09:44;18.50;99.90
5364;DHT22;2705;41.410;2.160;2022-09-27T02:12:24;18.30;99.90
5364;DHT22;2705;41.410;2.160;2022-09-27T02:15:00;18.60;99.90
5364;DHT22;2705;41.410;2.160;2022-09-27T02:17:39;18.70;99.90
5364;DHT22;2705;41.410;2.160;2022-09-27T02:20:16;18.80;99.90
5364;DHT22;2705;41.410;2.160;2022-09-27T02:22:56;18.80;99.90
5364;DHT22;2705;41.410;2.160;2022-09-27T02:25:33;18.50;99.90
5364;DHT22;2705;41.410;2.160;2022-09-27T02:28:13;18.30;99.90
5364;DHT22;2705;41.410;2.160;2022-09-27T02:30:45;18.30;99.90
5364;DHT22;2705;41.410;2.160;2022-09-27T02:33:23;18.30;99.90
5364;DHT22;2705;41.410;2.160;2022-09-27T02:35:56;18.50;99.90
5364;DHT22;2705;41.410;2.160;2022-09-27T02:38:25;18.50;99.90
5364;DHT22;2705;41.410;2.160;2022-09-27T02:40:56;18.30;99.90
5364;DHT22;2705;41.410;2.160;2022-09-27T02:43:29;18.20;99.90
5364;DHT22;2705;41.410;2.160;2022-09-27T02:46:14;18.10;99.90
5364;DHT22;2705;41.410;2.160;2022-09-27T02:48:54;18.30;99.90
5364;DHT22;2705;41.410;2.160;2022-09-27T02:51:37;18.30;99.90
5364;DHT22;2705;41.410;2.160;2022-09-27T02:54:15;18.20;99.90
5364;DHT22;2705;41.410;2.160;2022-09-27T02:57:09;18.20;99.90
5364;DHT22;2705;41.410;2.160;2022-09-27T02:59:44;18.10;99.90
5364;DHT22;2705;41.410;2.160;2022-09-27T03:02:46;18.10;99.90
5364;DHT22;2705;41.410;2.160;2022-09-27T03:05:40;18.00;99.90
5364;DHT22;2705;41.410;2.160;2022-09-27T03:08:13;18.40;99.90
5364;DHT22;2705;41.410;2.160;2022-09-27T03:10:42;18.40;99.90
5364;DHT22;2705;41.410;2.160;2022-09-27T03:13:11;18.20;99.90
5364;DHT22;2705;41.410;2.160;2022-09-27T03:15:41;18.30;99.90
5364;DHT22;2705;41.410;2.160;2022-09-27T03:18:29;18.00;99.90
5364;DHT22;2705;41.410;2.160;2022-09-27T03:21:16;18.10;99.90
5364;DHT22;2705;41.410;2.160;2022-09-27T03:23:47;17.90;99.90
5364;DHT22;2705;41.410;2.160;2022-09-27T03:26:17;17.80;99.90
5364;DHT22;2705;41.410;2.160;2022-09-27T03:28:46;17.70;99.90
5364;DHT22;2705;41.410;2.160;2022-09-27T03:31:15;17.70;99.90
5364;DHT22;2705;41.410;2.160;2022-09-27T03:34:07;17.70;99.90
5364;DHT22;2705;41.410;2.160;2022-09-27T03:36:36;17.60;99.90
5364;DHT22;2705;41.410;2.160;2022-09-27T03:39:06;17.50;99.90
5364;DHT22;2705;41.410;2.160;2022-09-27T03:41:35;17.60;99.90
5364;DHT22;2705;41.410;2.160;2022-09-27T03:44:04;17.50;99.90
5364;DHT22;2705;41.410;2.160;2022-09-27T03:46:33;17.40;99.90
5364;DHT22;2705;41.410;2.160;2022-09-27T03:49:03;17.30;99.90
5364;DHT22;2705;41.410;2.160;2022-09-27T03:51:32;17.40;99.90
5364;DHT22;2705;41.410;2.160;2022-09-27T03:54:01;17.40;99.90
5364;DHT22;2705;41.410;2.160;2022-09-27T03:56:32;17.40;99.90
5364;DHT22;2705;41.410;2.160;2022-09-27T03:59:01;17.30;99.90
5364;DHT22;2705;41.410;2.160;2022-09-27T04:01:43;17.10;99.90
5364;DHT22;2705;41.410;2.160;2022-09-27T04:04:32;17.10;99.90
5364;DHT22;2705;41.410;2.160;2022-09-27T04:07:01;17.20;99.90
5364;DHT22;2705;41.410;2.160;2022-09-27T04:09:31;17.10;99.90
5364;DHT22;2705;41.410;2.160;2022-09-27T04:12:02;17.10;99.90
5364;DHT22;2705;41.410;2.160;2022-09-27T04:14:32;17.10;99.90
5364;DHT22;2705;41.410;2.160;2022-09-27T04:17:19;17.20;99.90
5364;DHT22;2705;41.410;2.160;2022-09-27T04:20:10;17.20;99.90
5364;DHT22;2705;41.410;2.160;2022-09-27T04:22:42;17.10;99.90
5364;DHT22;2705;41.410;2.160;2022-09-27T04:25:12;17.10;99.90
5364;DHT22;2705;41.410;2.160;2022-09-27T04:27:45;17.10;99.90
5364;DHT22;2705;41.410;2.160;2022-09-27T04:30:15;17.20;99.90
5364;DHT22;2705;41.410;2.160;2022-09-27T04:33:13;17.30;99.90
5364;DHT22;2705;41.410;2.160;2022-09-27T04:36:01;17.30;99.90
5364;DHT22;2705;41.410;2.160;2022-09-27T04:39:03;17.20;99.90
5364;DHT22;2705;41.410;2.160;2022-09-27T04:41:36;17.00;99.90
5364;DHT22;2705;41.410;2.160;2022-09-27T04:44:06;17.10;99.90
5364;DHT22;2705;41.410;2.160;2022-09-27T04:46:36;17.20;99.90
5364;DHT22;2705;41.410;2.160;2022-09-27T04:49:05;17.40;99.90
5364;DHT22;2705;41.410;2.160;2022-09-27T04:51:36;17.30;99.90
5364;DHT22;2705;41.410;2.160;2022-09-27T04:54:05;17.30;99.90
5364;DHT22;2705;41.410;2.160;2022-09-27T04:56:42;17.30;99.90
5364;DHT22;2705;41.410;2.160;2022-09-27T04:59:12;17.20;99.90
5364;DHT22;2705;41.410;2.160;2022-09-27T05:01:42;17.40;99.90
5364;DHT22;2705;41.410;2.160;2022-09-27T05:04:19;17.40;99.90
5364;DHT22;2705;41.410;2.160;2022-09-27T05:06:50;17.30;99.90
5364;DHT22;2705;41.410;2.160;2022-09-27T05:09:31;17.40;99.90
5364;DHT22;2705;41.410;2.160;2022-09-27T05:12:01;17.40;99.90
5364;DHT22;2705;41.410;2.160;2022-09-27T05:15:06;17.20;99.90
5364;DHT22;2705;41.410;2.160;2022-09-27T05:17:54;17.30;99.90
5364;DHT22;2705;41.410;2.160;2022-09-27T05:20:36;17.50;99.90
5364;DHT22;2705;41.410;2.160;2022-09-27T05:23:11;17.30;99.90
5364;DHT22;2705;41.410;2.160;2022-09-27T05:25:41;17.30;99.90
5364;DHT22;2705;41.410;2.160;2022-09-27T05:28:11;17.30;99.90
5364;DHT22;2705;41.410;2.160;2022-09-27T05:30:42;17.10;99.90
5364;DHT22;2705;41.410;2.160;2022-09-27T05:33:17;17.10;99.90
5364;DHT22;2705;41.410;2.160;2022-09-27T05:35:51;17.20;99.90
5364;DHT22;2705;41.410;2.160;2022-09-27T05:38:23;17.30;99.90
5364;DHT22;2705;41.410;2.160;2022-09-27T05:40:56;17.40;99.90
5364;DHT22;2705;41.410;2.160;2022-09-27T05:43:25;17.70;99.90
5364;DHT22;2705;41.410;2.160;2022-09-27T05:45:59;17.50;99.90
5364;DHT22;2705;41.410;2.160;2022-09-27T05:48:29;17.50;99.90
5364;DHT22;2705;41.410;2.160;2022-09-27T05:51:06;17.40;99.90
5364;DHT22;2705;41.410;2.160;2022-09-27T05:53:38;17.60;99.90
5364;DHT22;2705;41.410;2.160;2022-09-27T05:56:15;17.50;99.90
5364;DHT22;2705;41.410;2.160;2022-09-27T05:59:13;17.40;99.90
5364;DHT22;2705;41.410;2.160;2022-09-27T06:02:18;17.30;99.90
5364;DHT22;2705;41.410;2.160;2022-09-27T06:05:02;17.50;99.90
5364;DHT22;2705;41.410;2.160;2022-09-27T06:07:50;17.50;99.90
5364;DHT22;2705;41.410;2.160;2022-09-27T06:10:24;17.60;99.90
5364;DHT22;2705;41.410;2.160;2022-09-27T06:12:58;17.60;99.90
5364;DHT22;2705;41.410;2.160;2022-09-27T06:15:34;17.70;99.90
5364;DHT22;2705;41.410;2.160;2022-09-27T06:18:06;17.50;99.90
5364;DHT22;2705;41.410;2.160;2022-09-27T06:20:37;17.50;99.90
5364;DHT22;2705;41.410;2.160;2022-09-27T06:23:09;17.50;99.90
5364;DHT22;2705;41.410;2.160;2022-09-27T06:25:40;17.50;99.90
5364;DHT22;2705;41.410;2.160;2022-09-27T06:28:21;17.60;99.90
5364;DHT22;2705;41.410;2.160;2022-09-27T06:30:55;17.70;99.90
5364;DHT22;2705;41.410;2.160;2022-09-27T06:33:33;17.40;99.90
5364;DHT22;2705;41.410;2.160;2022-09-27T06:36:04;17.60;99.90
5364;DHT22;2705;41.410;2.160;2022-09-27T06:38:36;17.70;99.90
5364;DHT22;2705;41.410;2.160;2022-09-27T06:41:11;17.60;99.90
5364;DHT22;2705;41.410;2.160;2022-09-27T06:44:00;17.80;99.90
5364;DHT22;2705;41.410;2.160;2022-09-27T06:46:29;17.50;99.90
5364;DHT22;2705;41.410;2.160;2022-09-27T06:49:12;17.50;99.90
5364;DHT22;2705;41.410;2.160;2022-09-27T06:51:43;17.80;99.90
5364;DHT22;2705;41.410;2.160;2022-09-27T06:54:12;17.90;99.90
5364;DHT22;2705;41.410;2.160;2022-09-27T06:56:42;17.90;99.90
5364;DHT22;2705;41.410;2.160;2022-09-27T06:59:11;18.00;99.90
5364;DHT22;2705;41.410;2.160;2022-09-27T07:02:16;18.00;99.90
5364;DHT22;2705;41.410;2.160;2022-09-27T07:05:17;18.10;99.90
5364;DHT22;2705;41.410;2.160;2022-09-27T07:07:58;18.10;99.90
5364;DHT22;2705;41.410;2.160;2022-09-27T07:10:29;18.00;99.90
5364;DHT22;2705;41.410;2.160;2022-09-27T07:13:02;18.30;99.90
5364;DHT22;2705;41.410;2.160;2022-09-27T07:15:35;18.40;99.90
5364;DHT22;2705;41.410;2.160;2022-09-27T07:18:08;18.30;99.90
5364;DHT22;2705;41.410;2.160;2022-09-27T07:20:39;18.30;99.90
5364;DHT22;2705;41.410;2.160;2022-09-27T07:23:10;18.30;99.90
5364;DHT22;2705;41.410;2.160;2022-09-27T07:25:39;18.30;99.90
5364;DHT22;2705;41.410;2.160;2022-09-27T07:28:15;18.30;99.90
5364;DHT22;2705;41.410;2.160;2022-09-27T07:30:53;18.30;99.90
5364;DHT22;2705;41.410;2.160;2022-09-27T07:33:24;18.50;99.90
5364;DHT22;2705;41.410;2.160;2022-09-27T07:35:54;18.60;99.90
5364;DHT22;2705;41.410;2.160;2022-09-27T07:38:26;18.60;99.90
5364;DHT22;2705;41.410;2.160;2022-09-27T07:40:55;18.70;99.90
5364;DHT22;2705;41.410;2.160;2022-09-27T07:43:25;18.70;99.90
5364;DHT22;2705;41.410;2.160;2022-09-27T07:45:55;18.70;99.90
5364;DHT22;2705;41.410;2.160;2022-09-27T07:48:45;18.70;99.90
5364;DHT22;2705;41.410;2.160;2022-09-27T07:51:33;18.70;99.90
5364;DHT22;2705;41.410;2.160;2022-09-27T07:54:21;18.70;99.90
5364;DHT22;2705;41.410;2.160;2022-09-27T07:57:05;18.80;99.90
5364;DHT22;2705;41.410;2.160;2022-09-27T07:59:44;18.80;99.90
5364;DHT22;2705;41.410;2.160;2022-09-27T08:02:17;18.70;99.90
5364;DHT22;2705;41.410;2.160;2022-09-27T08:04:47;18.70;99.90
5364;DHT22;2705;41.410;2.160;2022-09-27T08:07:18;18.80;99.90
5364;DHT22;2705;41.410;2.160;2022-09-27T08:09:51;19.00;99.90
5364;DHT22;2705;41.410;2.160;2022-09-27T08:12:21;19.20;99.90
5364;DHT22;2705;41.410;2.160;2022-09-27T08:14:50;19.20;99.90
5364;DHT22;2705;41.410;2.160;2022-09-27T08:17:20;19.20;99.90
5364;DHT22;2705;41.410;2.160;2022-09-27T08:20:21;19.30;99.90
5364;DHT22;2705;41.410;2.160;2022-09-27T08:23:02;19.30;99.90
5364;DHT22;2705;41.410;2.160;2022-09-27T08:25:35;19.50;99.90
5364;DHT22;2705;41.410;2.160;2022-09-27T08:28:23;19.60;99.90
5364;DHT22;2705;41.410;2.160;2022-09-27T08:30:58;19.70;99.90
5364;DHT22;2705;41.410;2.160;2022-09-27T08:33:28;19.80;99.90
5364;DHT22;2705;41.410;2.160;2022-09-27T08:36:01;19.90;99.90
5364;DHT22;2705;41.410;2.160;2022-09-27T08:38:32;20.00;99.90
5364;DHT22;2705;41.410;2.160;2022-09-27T08:41:07;20.10;99.90
5364;DHT22;2705;41.410;2.160;2022-09-27T08:43:43;19.90;99.90
5364;DHT22;2705;41.410;2.160;2022-09-27T08:46:26;20.20;99.90
5364;DHT22;2705;41.410;2.160;2022-09-27T08:49:04;20.50;99.90
5364;DHT22;2705;41.410;2.160;2022-09-27T08:51:34;20.70;99.90
5364;DHT22;2705;41.410;2.160;2022-09-27T08:54:09;20.60;99.90
5364;DHT22;2705;41.410;2.160;2022-09-27T08:56:40;20.70;99.90
5364;DHT22;2705;41.410;2.160;2022-09-27T08:59:12;20.80;99.90
5364;DHT22;2705;41.410;2.160;2022-09-27T09:01:42;21.00;99.90
5364;DHT22;2705;41.410;2.160;2022-09-27T09:04:25;21.00;99.90
5364;DHT22;2705;41.410;2.160;2022-09-27T09:07:01;21.10;99.90
5364;DHT22;2705;41.410;2.160;2022-09-27T09:09:44;20.80;99.90
5364;DHT22;2705;41.410;2.160;2022-09-27T09:12:31;20.80;99.90
5364;DHT22;2705;41.410;2.160;2022-09-27T09:15:31;20.80;99.90
5364;DHT22;2705;41.410;2.160;2022-09-27T09:18:37;20.90;99.90
5364;DHT22;2705;41.410;2.160;2022-09-27T09:21:22;20.90;99.90
5364;DHT22;2705;41.410;2.160;2022-09-27T09:24:16;21.00;99.90
5364;DHT22;2705;41.410;2.160;2022-09-27T09:26:53;21.20;99.90
5364;DHT22;2705;41.410;2.160;2022-09-27T09:29:55;21.30;99.90
5364;DHT22;2705;41.410;2.160;2022-09-27T09:32:41;21.20;99.90
5364;DHT22;2705;41.410;2.160;2022-09-27T09:35:16;21.20;99.90
5364;DHT22;2705;41.410;2.160;2022-09-27T09:37:48;21.30;99.90
5364;DHT22;2705;41.410;2.160;2022-09-27T09:40:22;21.30;99.90
5364;DHT22;2705;41.410;2.160;2022-09-27T09:42:57;21.30;99.90
5364;DHT22;2705;41.410;2.160;2022-09-27T09:45:30;21.10;99.90
5364;DHT22;2705;41.410;2.160;2022-09-27T09:48:06;21.30;99.90
5364;DHT22;2705;41.410;2.160;2022-09-27T09:50:41;21.50;99.90
5364;DHT22;2705;41.410;2.160;2022-09-27T09:53:16;21.70;99.90
5364;DHT22;2705;41.410;2.160;2022-09-27T09:55:50;21.70;99.90
5364;DHT22;2705;41.410;2.160;2022-09-27T09:58:24;21.60;99.90
5364;DHT22;2705;41.410;2.160;2022-09-27T10:01:12;21.50;99.90
5364;DHT22;2705;41.410;2.160;2022-09-27T10:03:42;21.70;99.90
5364;DHT22;2705;41.410;2.160;2022-09-27T10:06:12;21.90;99.90
5364;DHT22;2705;41.410;2.160;2022-09-27T10:08:42;22.00;99.90
5364;DHT22;2705;41.410;2.160;2022-09-27T10:11:45;22.00;99.90
5364;DHT22;2705;41.410;2.160;2022-09-27T10:14:20;22.00;99.90
5364;DHT22;2705;41.410;2.160;2022-09-27T10:16:54;21.80;99.90
5364;DHT22;2705;41.410;2.160;2022-09-27T10:19:27;22.00;99.90
5364;DHT22;2705;41.410;2.160;2022-09-27T10:22:01;22.00;99.90
5364;DHT22;2705;41.410;2.160;2022-09-27T10:24:54;22.30;99.90
5364;DHT22;2705;41.410;2.160;2022-09-27T10:27:45;22.50;99.90
5364;DHT22;2705;41.410;2.160;2022-09-27T10:30:26;22.60;99.90
5364;DHT22;2705;41.410;2.160;2022-09-27T10:32:58;22.50;99.90
5364;DHT22;2705;41.410;2.160;2022-09-27T10:35:40;22.40;99.90
5364;DHT22;2705;41.410;2.160;2022-09-27T10:38:25;22.60;99.90
5364;DHT22;2705;41.410;2.160;2022-09-27T10:41:16;22.70;99.90
5364;DHT22;2705;41.410;2.160;2022-09-27T10:43:45;22.50;99.90
5364;DHT22;2705;41.410;2.160;2022-09-27T10:46:29;22.40;99.90
5364;DHT22;2705;41.410;2.160;2022-09-27T10:49:34;22.20;99.90
5364;DHT22;2705;41.410;2.160;2022-09-27T10:52:16;22.30;99.90
5364;DHT22;2705;41.410;2.160;2022-09-27T10:54:53;22.40;99.90
5364;DHT22;2705;41.410;2.160;2022-09-27T10:57:25;22.60;99.90
5364;DHT22;2705;41.410;2.160;2022-09-27T10:59:58;22.70;99.90
5364;DHT22;2705;41.410;2.160;2022-09-27T11:02:33;22.80;99.90
5364;DHT22;2705;41.410;2.160;2022-09-27T11:05:14;23.00;99.90
5364;DHT22;2705;41.410;2.160;2022-09-27T11:07:59;23.30;99.90
5364;DHT22;2705;41.410;2.160;2022-09-27T11:10:40;23.40;99.80
5364;DHT22;2705;41.410;2.160;2022-09-27T11:13:14;23.40;99.40
5364;DHT22;2705;41.410;2.160;2022-09-27T11:16:04;23.50;99.00
5364;DHT22;2705;41.410;2.160;2022-09-27T11:18:43;23.60;99.00
5364;DHT22;2705;41.410;2.160;2022-09-27T11:21:25;23.40;98.80
5364;DHT22;2705;41.410;2.160;2022-09-27T11:24:09;23.60;99.10
5364;DHT22;2705;41.410;2.160;2022-09-27T11:26:47;24.00;99.00
5364;DHT22;2705;41.410;2.160;2022-09-27T11:29:24;24.20;98.60
5364;DHT22;2705;41.410;2.160;2022-09-27T11:32:18;23.90;98.60
5364;DHT22;2705;41.410;2.160;2022-09-27T11:35:07;23.60;98.90
5364;DHT22;2705;41.410;2.160;2022-09-27T11:37:47;23.50;99.10
5364;DHT22;2705;41.410;2.160;2022-09-27T11:40:26;23.90;99.70
5364;DHT22;2705;41.410;2.160;2022-09-27T11:46:17;23.60;99.90
5364;DHT22;2705;41.410;2.160;2022-09-27T11:49:16;23.70;99.90
5364;DHT22;2705;41.410;2.160;2022-09-27T11:52:10;23.70;99.90
5364;DHT22;2705;41.410;2.160;2022-09-27T11:54:51;23.80;99.90
5364;DHT22;2705;41.410;2.160;2022-09-27T11:57:26;23.90;99.90
5364;DHT22;2705;41.410;2.160;2022-09-27T12:00:15;23.80;99.90
5364;DHT22;2705;41.410;2.160;2022-09-27T12:06:06;23.60;99.90
5364;DHT22;2705;41.410;2.160;2022-09-27T12:09:02;23.50;99.90
5364;DHT22;2705;41.410;2.160;2022-09-27T12:11:37;23.40;99.90
5364;DHT22;2705;41.410;2.160;2022-09-27T12:14:16;23.30;99.90
5364;DHT22;2705;41.410;2.160;2022-09-27T12:16:53;23.60;99.90
5364;DHT22;2705;41.410;2.160;2022-09-27T12:19:26;23.70;99.90
5364;DHT22;2705;41.410;2.160;2022-09-27T12:22:03;23.90;99.90
5364;DHT22;2705;41.410;2.160;2022-09-27T12:24:39;24.10;99.90
5364;DHT22;2705;41.410;2.160;2022-09-27T12:27:33;24.40;99.90
5364;DHT22;2705;41.410;2.160;2022-09-27T12:30:04;24.60;99.90
5364;DHT22;2705;41.410;2.160;2022-09-27T12:32:36;24.70;99.90
5364;DHT22;2705;41.410;2.160;2022-09-27T12:35:17;24.70;99.90
5364;DHT22;2705;41.410;2.160;2022-09-27T12:37:51;24.80;99.90
5364;DHT22;2705;41.410;2.160;2022-09-27T12:40:25;24.80;99.90
5364;DHT22;2705;41.410;2.160;2022-09-27T12:43:03;24.80;99.90
5364;DHT22;2705;41.410;2.160;2022-09-27T12:46:00;24.60;99.90
5364;DHT22;2705;41.410;2.160;2022-09-27T12:48:38;24.50;99.90
5364;DHT22;2705;41.410;2.160;2022-09-27T12:51:10;24.60;99.90
5364;DHT22;2705;41.410;2.160;2022-09-27T12:53:53;24.80;99.90
5364;DHT22;2705;41.410;2.160;2022-09-27T12:56:38;24.90;99.90
5364;DHT22;2705;41.410;2.160;2022-09-27T12:59:23;24.40;99.90
5364;DHT22;2705;41.410;2.160;2022-09-27T13:02:17;24.60;99.90
5364;DHT22;2705;41.410;2.160;2022-09-27T13:05:07;24.60;99.90
5364;DHT22;2705;41.410;2.160;2022-09-27T13:07:54;24.70;99.90
5364;DHT22;2705;41.410;2.160;2022-09-27T13:10:43;24.70;99.90
5364;DHT22;2705;41.410;2.160;2022-09-27T13:13:25;24.60;99.90
5364;DHT22;2705;41.410;2.160;2022-09-27T13:16:04;24.70;99.90
5364;DHT22;2705;41.410;2.160;2022-09-27T13:18:53;24.80;99.90
5364;DHT22;2705;41.410;2.160;2022-09-27T13:24:47;24.80;99.90
5364;DHT22;2705;41.410;2.160;2022-09-27T13:27:40;24.40;99.90
5364;DHT22;2705;41.410;2.160;2022-09-27T13:30:45;24.40;99.90
5364;DHT22;2705;41.410;2.160;2022-09-27T13:33:39;24.60;99.90
5364;DHT22;2705;41.410;2.160;2022-09-27T13:36:27;24.70;99.90
5364;DHT22;2705;41.410;2.160;2022-09-27T13:39:18;24.90;99.90
5364;DHT22;2705;41.410;2.160;2022-09-27T13:42:18;24.80;99.90
5364;DHT22;2705;41.410;2.160;2022-09-27T13:45:16;24.70;99.90
5364;DHT22;2705;41.410;2.160;2022-09-27T13:47:51;24.40;99.90
5364;DHT22;2705;41.410;2.160;2022-09-27T13:50:38;24.70;99.90
5364;DHT22;2705;41.410;2.160;2022-09-27T13:53:18;24.70;99.90
5364;DHT22;2705;41.410;2.160;2022-09-27T13:55:51;24.50;99.90
5364;DHT22;2705;41.410;2.160;2022-09-27T13:58:41;24.40;99.90
5364;DHT22;2705;41.410;2.160;2022-09-27T14:01:43;24.20;99.90
5364;DHT22;2705;41.410;2.160;2022-09-27T14:04:21;24.10;99.90
5364;DHT22;2705;41.410;2.160;2022-09-27T14:06:55;24.30;99.90
5364;DHT22;2705;41.410;2.160;2022-09-27T14:09:30;24.20;99.90
5364;DHT22;2705;41.410;2.160;2022-09-27T14:12:23;24.20;99.90
5364;DHT22;2705;41.410;2.160;2022-09-27T14:14:54;24.40;99.90
5364;DHT22;2705;41.410;2.160;2022-09-27T14:17:25;24.40;99.90
5364;DHT22;2705;41.410;2.160;2022-09-27T14:19:55;24.30;99.90
5364;DHT22;2705;41.410;2.160;2022-09-27T14:22:25;24.60;99.90
5364;DHT22;2705;41.410;2.160;2022-09-27T14:25:00;24.40;99.90
5364;DHT22;2705;41.410;2.160;2022-09-27T14:27:38;24.40;99.90
5364;DHT22;2705;41.410;2.160;2022-09-27T14:30:36;24.50;99.90
5364;DHT22;2705;41.410;2.160;2022-09-27T14:33:33;24.50;99.90
5364;DHT22;2705;41.410;2.160;2022-09-27T14:36:22;24.30;99.90
5364;DHT22;2705;41.410;2.160;2022-09-27T14:39:14;24.20;99.90
5364;DHT22;2705;41.410;2.160;2022-09-27T14:41:46;24.00;99.90
5364;DHT22;2705;41.410;2.160;2022-09-27T14:44:17;24.20;99.90
5364;DHT22;2705;41.410;2.160;2022-09-27T14:47:07;24.60;99.90
5364;DHT22;2705;41.410;2.160;2022-09-27T14:49:46;25.00;99.90
5364;DHT22;2705;41.410;2.160;2022-09-27T14:52:19;25.30;99.90
5364;DHT22;2705;41.410;2.160;2022-09-27T14:54:58;25.40;99.90
5364;DHT22;2705;41.410;2.160;2022-09-27T14:57:30;25.50;99.90
5364;DHT22;2705;41.410;2.160;2022-09-27T15:00:16;25.10;99.90
5364;DHT22;2705;41.410;2.160;2022-09-27T15:02:47;25.60;99.90
5364;DHT22;2705;41.410;2.160;2022-09-27T15:05:20;25.70;99.90
5364;DHT22;2705;41.410;2.160;2022-09-27T15:07:51;26.10;99.90
5364;DHT22;2705;41.410;2.160;2022-09-27T15:10:24;26.50;99.90
5364;DHT22;2705;41.410;2.160;2022-09-27T15:12:56;25.70;99.90
5364;DHT22;2705;41.410;2.160;2022-09-27T15:15:29;25.10;99.90
5364;DHT22;2705;41.410;2.160;2022-09-27T15:18:01;24.60;99.90
5364;DHT22;2705;41.410;2.160;2022-09-27T15:20:32;25.30;99.90
5364;DHT22;2705;41.410;2.160;2022-09-27T15:23:04;26.10;99.90
5364;DHT22;2705;41.410;2.160;2022-09-27T15:25:35;25.80;99.90
5364;DHT22;2705;41.410;2.160;2022-09-27T15:28:17;26.00;99.90
5364;DHT22;2705;41.410;2.160;2022-09-27T15:30:52;26.70;99.90
5364;DHT22;2705;41.410;2.160;2022-09-27T15:33:25;26.50;99.90
5364;DHT22;2705;41.410;2.160;2022-09-27T15:35:57;26.60;99.90
5364;DHT22;2705;41.410;2.160;2022-09-27T15:38:30;25.80;99.90
5364;DHT22;2705;41.410;2.160;2022-09-27T15:41:03;25.90;99.90
5364;DHT22;2705;41.410;2.160;2022-09-27T15:43:36;26.10;99.90
5364;DHT22;2705;41.410;2.160;2022-09-27T15:46:35;26.20;99.90
5364;DHT22;2705;41.410;2.160;2022-09-27T15:49:26;25.70;99.90
5364;DHT22;2705;41.410;2.160;2022-09-27T15:51:58;25.20;99.90
5364;DHT22;2705;41.410;2.160;2022-09-27T15:54:30;24.40;99.90
5364;DHT22;2705;41.410;2.160;2022-09-27T15:57:04;24.10;99.90
5364;DHT22;2705;41.410;2.160;2022-09-27T15:59:34;24.00;99.90
5364;DHT22;2705;41.410;2.160;2022-09-27T16:02:09;23.80;99.90
5364;DHT22;2705;41.410;2.160;2022-09-27T16:04:41;23.80;99.90
5364;DHT22;2705;41.410;2.160;2022-09-27T16:07:10;23.70;99.90
5364;DHT22;2705;41.410;2.160;2022-09-27T16:09:43;23.50;99.90
5364;DHT22;2705;41.410;2.160;2022-09-27T16:12:13;23.40;99.90
5364;DHT22;2705;41.410;2.160;2022-09-27T16:14:42;23.40;99.90
5364;DHT22;2705;41.410;2.160;2022-09-27T16:17:12;23.30;99.90
5364;DHT22;2705;41.410;2.160;2022-09-27T16:19:41;23.30;99.90
5364;DHT22;2705;41.410;2.160;2022-09-27T16:22:10;23.10;99.90
5364;DHT22;2705;41.410;2.160;2022-09-27T16:24:40;23.20;99.90
5364;DHT22;2705;41.410;2.160;2022-09-27T16:27:10;23.20;99.90
5364;DHT22;2705;41.410;2.160;2022-09-27T16:29:42;23.20;99.90
5364;DHT22;2705;41.410;2.160;2022-09-27T16:32:11;23.10;99.90
5364;DHT22;2705;41.410;2.160;2022-09-27T16:34:40;23.10;99.90
5364;DHT22;2705;41.410;2.160;2022-09-27T16:37:09;23.00;99.90
5364;DHT22;2705;41.410;2.160;2022-09-27T16:39:38;22.90;99.90
5364;DHT22;2705;41.410;2.160;2022-09-27T16:42:07;22.70;99.90
5364;DHT22;2705;41.410;2.160;2022-09-27T16:44:38;22.80;99.90
5364;DHT22;2705;41.410;2.160;2022-09-27T16:47:08;22.70;99.90
5364;DHT22;2705;41.410;2.160;2022-09-27T16:49:37;22.70;99.90
5364;DHT22;2705;41.410;2.160;2022-09-27T16:52:24;22.70;99.90
5364;DHT22;2705;41.410;2.160;2022-09-27T16:54:53;22.70;99.90
5364;DHT22;2705;41.410;2.160;2022-09-27T16:57:22;22.70;99.90
5364;DHT22;2705;41.410;2.160;2022-09-27T16:59:52;22.50;99.90
5364;DHT22;2705;41.410;2.160;2022-09-27T17:02:23;22.60;99.90
5364;DHT22;2705;41.410;2.160;2022-09-27T17:04:52;22.70;99.90
5364;DHT22;2705;41.410;2.160;2022-09-27T17:07:21;22.70;99.90
5364;DHT22;2705;41.410;2.160;2022-09-27T17:09:50;22.60;99.90
5364;DHT22;2705;41.410;2.160;2022-09-27T17:12:19;22.60;99.90
5364;DHT22;2705;41.410;2.160;2022-09-27T17:14:49;22.50;99.90
5364;DHT22;2705;41.410;2.160;2022-09-27T17:17:19;22.60;99.90
5364;DHT22;2705;41.410;2.160;2022-09-27T17:19:48;22.60;99.90
5364;DHT22;2705;41.410;2.160;2022-09-27T17:22:17;22.50;99.90